Погода Уистлана неделю

Чьяпас, Мексика

24 февраля-01 марта
  • 24февраля
    Сегодня
    +20°
    +35°
    Ясно и безоблачно
    ВремяПогодаТемператураВлажностьДавлениеВетер, м/сВероятность осадков
    00:00Практически безоблачно+25°C78 %753 мм1.1 м/с2 %
    03:00Ясно и безоблачно+24°C71 %753 мм0.9 м/с2 %
    06:00Ясно и безоблачно+22°C59 %754 мм0.9 м/с3 %
    09:00Ясно и безоблачно+28°C56 %755 мм1.1 м/с2 %
    12:00Ясно и безоблачно+33°C39 %754 мм1.6 м/с2 %
    15:00Ясно и безоблачно+35°C45 %752 мм3.1 м/с2 %
    18:00Ясно и безоблачно+31°C64 %753 мм1.6 м/с2 %
    21:00Ясно и безоблачно+27°C79 %755 мм0.9 м/с2 %
  • 25февраля
    Воскресенье
    +21°
    +36°
    Ясно и безоблачно
    ВремяПогодаТемператураВлажностьДавлениеВетер, м/сВероятность осадков
    00:00Ясно и безоблачно+24°C64 %755 мм1.1 м/с2 %
    03:00Ясно и безоблачно+23°C52 %754 мм0.9 м/с2 %
    06:00Ясно и безоблачно+20°C49 %755 мм1.5 м/с2 %
    09:00Ясно и безоблачно+28°C44 %756 мм0.9 м/с2 %
    12:00Ясно и безоблачно+34°C32 %755 мм2.3 м/с2 %
    15:00Ясно и безоблачно+36°C45 %753 мм3.6 м/с2 %
    18:00Ясно и безоблачно+31°C61 %753 мм1.9 м/с3 %
    21:00Ясно и безоблачно+27°C73 %755 мм0.9 м/с2 %
  • 26февраля
    Понедельник
    +20°
    +35°
    Практически безоблачно
    ВремяПогодаТемператураВлажностьДавлениеВетер, м/сВероятность осадков
    00:00Ясно и безоблачно+25°C69 %755 мм0.8 м/с3 %
    03:00Ясно и безоблачно+24°C63 %754 мм1.0 м/с2 %
    06:00Ясно и безоблачно+22°C58 %755 мм1.0 м/с2 %
    09:00Ясно и безоблачно+28°C59 %756 мм0.9 м/с2 %
    12:00Практически безоблачно+34°C41 %755 мм2.7 м/с3 %
    15:00Практически безоблачно+34°C47 %753 мм3.4 м/с18 %
    18:00Небольшая облачность+30°C58 %754 мм2.1 м/с13 %
    21:00Ясно и безоблачно+27°C71 %755 мм1.1 м/с2 %
  • 27февраля
    Вторник
    +21°
    +35°
    Практически безоблачно
    ВремяПогодаТемператураВлажностьДавлениеВетер, м/сВероятность осадков
    00:00Ясно и безоблачно+24°C62 %754 мм1.4 м/с2 %
    03:00Ясно и безоблачно+22°C54 %753 мм1.1 м/с2 %
    06:00Ясно и безоблачно+20°C50 %753 мм0.5 м/с2 %
    09:00Ясно и безоблачно+28°C45 %755 мм1.1 м/с2 %
    12:00Ясно и безоблачно+35°C32 %754 мм2.7 м/с2 %
    15:00Практически безоблачно+35°C40 %752 мм4.3 м/с4 %
    18:00Ясно и безоблачно+31°C50 %752 мм2.1 м/с8 %
    21:00Ясно и безоблачно+28°C66 %753 мм0.6 м/с2 %
  • 28февраля
    Среда
    +21°
    +36°
    Практически безоблачно
    ВремяПогодаТемператураВлажностьДавлениеВетер, м/сВероятность осадков
    00:00Ясно и безоблачно+24°C68 %753 мм0.6 м/с2 %
    03:00Ясно и безоблачно+23°C63 %752 мм0.8 м/с2 %
    06:00Ясно и безоблачно+21°C60 %752 мм1.1 м/с2 %
    09:00Ясно и безоблачно+29°C43 %754 мм1.5 м/с2 %
    12:00Ясно и безоблачно+35°C32 %753 мм2.8 м/с2 %
    15:00Практически безоблачно+35°C37 %752 мм4.3 м/с3 %
    18:00Ясно и безоблачно+31°C54 %752 мм2.3 м/с4 %
    21:00Ясно и безоблачно+28°C65 %754 мм1.2 м/с2 %
Мы используем cookies
Соглашаюсь